Impacts METAR Board
IDs:

KCLE - Cleveland/Hopkins In, OH, US

Updated at: 0700 UTC 07 Dec 2022
Potential Impact None Slight Moderate High
Time 06/19Z 06/20Z 06/21Z 06/22Z 06/23Z 07/00Z 07/01Z 07/02Z 07/03Z 07/04Z 07/05Z 07/06Z 07/07Z
Temp49 49 49 49 49 48 48 47 47 47 47 47 48
Dewpt44 44 44 44 44 44 45 45 45 45 45 45 45
Altim30.00 29.99 29.99 30.01 30.02 30.01 30.02 30.02 30.02 30.02 30.03 30.02 30.03
VIS7 9 8 9 9 7 2 3 3 4 2.5 4 6
CIG9 10 10 10 11 12 7 8 21 40 15 36 33
CoverOVCOVCOVCOVCOVCOVCOVCOVCOVCOVCOVCOVCOVC
FltCatIFRMVFRMVFRMVFRMVFRMVFRIFRIFRMVFRMVFRIFRMVFRVFR
WX-----------DZ-DZ BR-DZ BR-DZ BR-DZ BR-DZ BRBRBR
WDir1601501209090110801101101100170190
WSpd4 10 6 4 3 3 3 4 3 3 0 5 4
WGst-- -- -- -- -- -- -- -- -- -- -- -- --
Raw hourly METARs
KCLE 061851Z 16004KT 7SM OVC009 09/07 A3000 RMK AO2 SLP178 T00940067
KCLE 061951Z 15010KT 9SM BKN010 OVC022 09/07 A2999 RMK AO2 SLP175 T00940067
KCLE 062051Z 12006KT 8SM BKN010 OVC015 09/07 A2999 RMK AO2 SLP176 T00940067 56007
KCLE 062151Z 09004KT 9SM OVC010 09/07 A3001 RMK AO2 SLP181 T00940067
KCLE 062251Z 09003KT 9SM OVC011 09/07 A3002 RMK AO2 SLP185 T00940067 $
KCLE 062351Z 11003KT 7SM -DZ OVC012 09/07 A3001 RMK AO2 DZB42 SLP184 P0000 60000 T00890067 10100 20089 50007 $
KCLE 070051Z 08003KT 2SM -DZ BR OVC007 09/07 A3002 RMK AO2 SLP187 P0000 T00890072 $
KCLE 070148Z 11004KT 3SM -DZ BR FEW005 BKN008 OVC031 08/07 A3002 RMK AO2 SLP185 P0000 T00830072 $
KCLE 070303Z 11003KT 3SM -DZ BR FEW016 BKN021 OVC032 08/07 A3002 RMK AO2 P0000 T00830072 $
KCLE 070358Z 11003KT 4SM -DZ BR FEW004 OVC040 08/07 A3002 RMK AO2 P0000 T00830072 $
KCLE 070451Z 00000KT 2 1/2SM -DZ BR FEW008 OVC015 08/07 A3003 RMK AO2 SLP187 P0000 T00830072 401000056 $
KCLE 070603Z 17005KT 4SM BR SCT025 OVC036 08/07 A3002 RMK AO2 T00830072 $
KCLE 070651Z 19004KT 6SM BR OVC033 09/07 A3003 RMK AO2 SLP189 T00890072 $



Page loaded:  07:35 UTC  |   11:35 PM Pacific  |   12:35 AM Mountain  |   01:35 AM Central  |   02:35 AM Eastern

 

ADVISORIES

FORECASTS

FORECASTS

OBSERVATIONS

USER TOOLS

ABOUT US